createdAt,value
2022-12-05T00:00:19.299Z,53.10
2022-12-05T00:02:54.036Z,53.70
2022-12-05T00:05:23.414Z,58.20
2022-12-05T00:07:51.386Z,59.30
2022-12-05T00:10:20.451Z,57.60
2022-12-05T00:12:49.467Z,50.70
2022-12-05T00:15:19.471Z,56.40
2022-12-05T00:17:48.770Z,53.10
2022-12-05T00:20:18.368Z,53.50
2022-12-05T00:22:47.260Z,60.40
2022-12-05T00:25:15.807Z,58.60
2022-12-05T00:27:44.917Z,59.90
2022-12-05T00:30:13.669Z,53.30
2022-12-05T00:32:41.865Z,66.70
2022-12-05T00:35:12.684Z,57.00
2022-12-05T00:37:41.136Z,48.70
2022-12-05T00:40:10.827Z,50.60
2022-12-05T00:42:41.583Z,52.40
2022-12-05T00:45:12.504Z,49.10
2022-12-05T00:47:44.049Z,50.30
2022-12-05T00:50:12.532Z,62.80
2022-12-05T00:52:43.804Z,43.70
2022-12-05T00:55:13.662Z,53.70
2022-12-05T00:57:41.855Z,53.30
2022-12-05T01:00:15.796Z,41.80
2022-12-05T01:02:45.073Z,54.80
2022-12-05T01:05:13.597Z,49.60
2022-12-05T01:07:43.363Z,62.80
2022-12-05T01:10:15.983Z,44.20
2022-12-05T01:12:47.728Z,51.70
2022-12-05T01:15:20.584Z,61.60
2022-12-05T01:17:50.094Z,56.80
2022-12-05T01:20:19.755Z,61.10
2022-12-05T01:22:49.564Z,49.00
2022-12-05T01:25:18.432Z,49.90
2022-12-05T01:27:49.792Z,60.30
2022-12-05T01:30:20.905Z,52.40
2022-12-05T01:32:51.155Z,54.50
2022-12-05T01:35:22.982Z,64.70
2022-12-05T01:37:52.719Z,58.20
2022-12-05T01:40:25.574Z,50.70
2022-12-05T01:42:55.172Z,54.70
2022-12-05T01:45:32.339Z,58.00
2022-12-05T01:48:04.604Z,47.70
2022-12-05T01:50:37.825Z,53.40
2022-12-05T01:53:10.912Z,58.40
2022-12-05T01:55:40.279Z,51.70
2022-12-05T01:58:09.994Z,51.20
2022-12-05T02:00:43.042Z,52.90
2022-12-05T02:03:21.550Z,50.70
2022-12-05T02:05:53.644Z,61.30
2022-12-05T02:08:23.826Z,52.20
2022-12-05T02:10:57.173Z,56.10
2022-12-05T02:13:39.440Z,47.30
2022-12-05T02:16:19.493Z,50.00
2022-12-05T02:19:00.470Z,67.40
2022-12-05T02:22:01.494Z,48.40
2022-12-05T02:24:58.463Z,51.00
2022-12-05T02:28:04.033Z,44.30
2022-12-05T02:30:41.324Z,41.40
2022-12-05T02:33:20.526Z,52.80
2022-12-05T02:35:58.329Z,51.70
2022-12-05T02:38:37.083Z,36.50
2022-12-05T02:41:20.501Z,42.40
2022-12-05T02:43:54.572Z,42.40
2022-12-05T02:46:27.926Z,42.80
2022-12-05T02:49:01.454Z,42.70
2022-12-05T02:51:36.449Z,43.70
2022-12-05T02:54:12.013Z,50.60
2022-12-05T02:56:45.510Z,44.70
2022-12-05T02:59:19.895Z,37.30
2022-12-05T03:01:53.437Z,43.00
2022-12-05T03:04:28.374Z,39.20
2022-12-05T03:07:03.995Z,43.20
2022-12-05T03:09:37.407Z,37.90
2022-12-05T03:12:16.856Z,38.10
2022-12-05T03:14:48.289Z,35.10
2022-12-05T03:17:22.660Z,30.00
2022-12-05T03:19:56.841Z,40.90
2022-12-05T03:22:32.976Z,32.00
2022-12-05T03:25:02.544Z,38.70
2022-12-05T03:27:40.373Z,32.50
2022-12-05T03:30:12.184Z,35.00
2022-12-05T03:32:49.381Z,30.40
2022-12-05T03:35:27.770Z,41.20
2022-12-05T03:38:01.853Z,37.60
2022-12-05T03:40:37.530Z,38.30
2022-12-05T03:43:11.553Z,38.70
2022-12-05T03:45:50.483Z,33.50
2022-12-05T03:48:27.014Z,39.00
2022-12-05T03:50:59.189Z,43.30
2022-12-05T03:53:31.746Z,43.90
2022-12-05T03:56:12.132Z,40.20
2022-12-05T03:58:45.406Z,35.60
2022-12-05T04:01:18.031Z,40.30
2022-12-05T04:03:55.236Z,43.20
2022-12-05T04:06:31.916Z,38.50
2022-12-05T04:09:02.919Z,41.50
2022-12-05T04:11:35.577Z,39.80
2022-12-05T04:14:13.386Z,40.80
2022-12-05T04:17:08.084Z,37.00
2022-12-05T04:20:02.784Z,37.70
2022-12-05T04:22:34.394Z,39.80
2022-12-05T04:25:27.726Z,38.60
2022-12-05T04:28:06.127Z,39.10
2022-12-05T04:30:41.029Z,41.70
2022-12-05T04:33:15.426Z,37.40
2022-12-05T04:35:49.538Z,39.50
2022-12-05T04:38:23.497Z,40.20
2022-12-05T04:40:58.125Z,45.00
2022-12-05T04:43:29.204Z,42.00
2022-12-05T04:46:01.703Z,45.60
2022-12-05T04:48:35.805Z,39.00
2022-12-05T04:51:09.495Z,37.90
2022-12-05T04:53:42.834Z,38.20
2022-12-05T04:56:15.717Z,41.70
2022-12-05T04:58:48.995Z,32.40
2022-12-05T05:01:24.409Z,40.20
2022-12-05T05:04:00.740Z,38.20
2022-12-05T05:06:32.782Z,38.50
2022-12-05T05:09:02.114Z,33.10
2022-12-05T05:11:38.356Z,39.30
2022-12-05T05:14:08.524Z,31.30
2022-12-05T05:16:41.824Z,35.40
2022-12-05T05:19:13.431Z,39.90
2022-12-05T05:21:43.917Z,42.20
2022-12-05T05:24:14.854Z,42.50
2022-12-05T05:26:45.338Z,38.70
2022-12-05T05:29:17.959Z,38.70
2022-12-05T05:31:47.039Z,37.00
2022-12-05T05:34:17.647Z,37.00
2022-12-05T05:36:54.671Z,35.60
2022-12-05T05:41:54.061Z,32.20
2022-12-05T05:44:22.919Z,34.90
2022-12-05T05:46:53.798Z,34.80
2022-12-05T05:49:22.650Z,36.80
2022-12-05T05:51:53.084Z,33.40
2022-12-05T05:54:21.264Z,42.50
2022-12-05T05:56:56.864Z,40.40
2022-12-05T05:59:25.204Z,37.90
2022-12-05T06:01:58.976Z,39.70
2022-12-05T06:04:30.666Z,35.30
2022-12-05T06:07:05.032Z,40.50
2022-12-05T06:09:37.741Z,32.70
2022-12-05T06:12:11.883Z,43.30
2022-12-05T06:14:40.663Z,44.00
2022-12-05T06:17:10.296Z,44.70
2022-12-05T06:19:40.008Z,44.00
2022-12-05T06:22:10.454Z,39.50
2022-12-05T06:24:41.718Z,37.60
2022-12-05T06:27:12.019Z,38.00
2022-12-05T06:29:41.910Z,32.80
2022-12-05T06:32:12.357Z,35.70
2022-12-05T06:34:42.727Z,37.90
2022-12-05T06:37:14.805Z,41.70
2022-12-05T06:39:44.332Z,40.30
2022-12-05T06:42:11.956Z,39.50
2022-12-05T06:44:39.926Z,41.30
2022-12-05T06:47:07.447Z,37.40
2022-12-05T06:49:38.130Z,36.10
2022-12-05T06:52:06.277Z,37.10
2022-12-05T06:54:34.055Z,33.90
2022-12-05T06:57:01.531Z,36.80
2022-12-05T06:59:31.262Z,42.10
2022-12-05T07:02:02.055Z,35.60
2022-12-05T07:04:30.023Z,38.60
2022-12-05T07:06:57.979Z,38.10
2022-12-05T07:09:45.042Z,40.90
2022-12-05T07:12:13.287Z,32.80
2022-12-05T07:14:49.671Z,36.50
2022-12-05T07:19:46.505Z,31.60
2022-12-05T07:22:16.070Z,35.40
2022-12-05T07:24:44.500Z,27.80
2022-12-05T07:27:12.364Z,31.90
2022-12-05T07:29:40.172Z,35.30
2022-12-05T07:32:08.198Z,33.40
2022-12-05T07:34:35.904Z,40.50
2022-12-05T07:37:03.439Z,30.80
2022-12-05T07:39:31.022Z,40.70
2022-12-05T07:41:58.557Z,45.30
2022-12-05T07:44:26.642Z,37.10
2022-12-05T07:46:54.287Z,35.10
2022-12-05T07:49:21.901Z,37.40
2022-12-05T07:51:51.966Z,36.90
2022-12-05T07:54:19.581Z,34.10
2022-12-05T07:56:48.087Z,42.00
2022-12-05T07:59:18.290Z,37.20
2022-12-05T08:01:46.070Z,39.00
2022-12-05T08:04:15.487Z,35.70
2022-12-05T08:06:43.531Z,41.10
2022-12-05T08:09:11.233Z,36.40
2022-12-05T08:11:39.017Z,33.90
2022-12-05T08:14:06.969Z,36.10
2022-12-05T08:16:34.946Z,40.50
2022-12-05T08:19:04.500Z,43.60
2022-12-05T08:21:32.402Z,33.20
2022-12-05T08:24:00.146Z,49.60
2022-12-05T08:26:31.026Z,45.00
2022-12-05T08:29:01.314Z,33.10
2022-12-05T08:31:31.142Z,45.00
2022-12-05T08:34:00.437Z,34.40
2022-12-05T08:36:29.581Z,42.40
2022-12-05T08:38:58.861Z,39.80
2022-12-05T08:41:29.334Z,40.20
2022-12-05T08:43:58.547Z,40.30
2022-12-05T08:46:27.533Z,44.20
2022-12-05T08:48:55.558Z,45.50
2022-12-05T08:51:25.273Z,43.60
2022-12-05T08:53:52.934Z,52.90
2022-12-05T08:56:26.365Z,40.90
2022-12-05T08:58:58.509Z,47.60
2022-12-05T09:01:32.178Z,53.60
2022-12-05T09:04:01.761Z,41.70
2022-12-05T09:06:30.467Z,40.30
2022-12-05T09:09:00.923Z,42.80
2022-12-05T09:11:31.004Z,49.80
2022-12-05T09:14:00.056Z,52.50
2022-12-05T09:16:35.128Z,43.60
2022-12-05T09:19:11.091Z,47.30
2022-12-05T09:21:38.678Z,45.00
2022-12-05T09:24:07.594Z,42.70
2022-12-05T09:26:35.236Z,49.30
2022-12-05T09:29:03.351Z,49.70
2022-12-05T09:31:31.201Z,48.00
2022-12-05T09:33:58.834Z,46.30
2022-12-05T09:36:28.800Z,46.10
2022-12-05T09:39:00.924Z,43.50
2022-12-05T09:42:07.468Z,41.20
2022-12-05T09:45:05.279Z,48.60
2022-12-05T09:47:43.940Z,43.20
2022-12-05T09:50:18.500Z,43.70
2022-12-05T09:53:10.503Z,50.10
2022-12-05T09:55:46.286Z,41.90
2022-12-05T09:58:28.721Z,39.10
2022-12-05T10:01:02.558Z,54.30
2022-12-05T10:03:38.639Z,45.50
2022-12-05T10:06:18.546Z,49.90
2022-12-05T10:09:14.467Z,40.90
2022-12-05T10:11:52.924Z,50.00
2022-12-05T10:14:31.363Z,45.20
2022-12-05T10:17:04.699Z,52.30
2022-12-05T10:19:37.872Z,44.70
2022-12-05T10:22:18.766Z,44.00
2022-12-05T10:24:52.262Z,45.90
2022-12-05T10:27:26.972Z,44.20
2022-12-05T10:30:01.610Z,43.70
2022-12-05T10:32:35.940Z,47.10
2022-12-05T10:35:16.370Z,49.50
2022-12-05T10:37:48.334Z,55.30
2022-12-05T10:40:17.118Z,64.20
2022-12-05T10:42:46.807Z,46.70
2022-12-05T10:45:18.693Z,47.30
2022-12-05T10:47:53.797Z,40.90
2022-12-05T10:50:27.800Z,57.80
2022-12-05T10:52:57.715Z,56.90
2022-12-05T10:55:30.939Z,45.90
2022-12-05T10:58:17.015Z,51.70
2022-12-05T11:00:51.045Z,54.10
2022-12-05T11:03:26.583Z,51.70
2022-12-05T11:06:00.522Z,49.00
2022-12-05T11:08:55.841Z,43.40
2022-12-05T11:11:22.020Z,45.80
2022-12-05T11:13:54.299Z,50.70
2022-12-05T11:16:24.702Z,51.80
2022-12-05T11:18:53.981Z,56.30
2022-12-05T11:21:22.339Z,59.30
2022-12-05T11:23:52.426Z,55.80
2022-12-05T11:26:35.036Z,64.50
2022-12-05T11:29:03.776Z,60.40
2022-12-05T11:31:31.788Z,62.70
2022-12-05T11:34:14.913Z,54.10
2022-12-05T11:36:48.082Z,55.80
2022-12-05T11:39:15.949Z,68.30
2022-12-05T11:42:07.678Z,60.90
2022-12-05T11:44:50.425Z,55.30
2022-12-05T11:47:32.472Z,53.60
2022-12-05T11:50:14.402Z,46.70
2022-12-05T11:52:57.532Z,51.80
2022-12-05T11:55:29.642Z,50.50
2022-12-05T11:58:24.670Z,56.50
2022-12-05T12:01:06.472Z,48.00
2022-12-05T12:04:06.373Z,51.30
2022-12-05T12:06:48.684Z,47.30
2022-12-05T12:09:30.383Z,49.60
2022-12-05T12:12:07.552Z,56.50
2022-12-05T12:14:46.674Z,56.30
2022-12-05T12:17:26.956Z,56.50
2022-12-05T12:20:12.855Z,56.40
2022-12-05T12:22:56.057Z,56.10
2022-12-05T12:25:41.803Z,52.40
2022-12-05T12:28:32.444Z,54.00
2022-12-05T12:31:16.943Z,46.60
2022-12-05T12:33:54.981Z,52.10
2022-12-05T12:36:28.262Z,53.80
2022-12-05T12:39:09.461Z,51.00
2022-12-05T12:41:51.665Z,49.60
2022-12-05T12:44:45.741Z,50.50
2022-12-05T12:47:23.260Z,53.50
2022-12-05T12:50:02.994Z,50.30
2022-12-05T12:52:49.575Z,44.40
2022-12-05T12:55:26.453Z,43.70
2022-12-05T12:58:08.380Z,48.70
2022-12-05T13:00:50.925Z,38.90
2022-12-05T13:03:22.751Z,48.80
2022-12-05T13:05:53.843Z,38.80
2022-12-05T13:08:26.756Z,52.60
2022-12-05T13:10:55.513Z,47.00
2022-12-05T13:13:28.437Z,52.30
2022-12-05T13:16:02.070Z,49.80
2022-12-05T13:18:31.309Z,48.50
2022-12-05T13:21:02.030Z,52.00
2022-12-05T13:23:32.444Z,55.30
2022-12-05T13:26:07.409Z,45.00
2022-12-05T13:28:41.432Z,50.00
2022-12-05T13:31:10.528Z,50.00
2022-12-05T13:33:47.313Z,45.50
2022-12-05T13:36:38.356Z,50.50
2022-12-05T13:39:36.255Z,49.10
2022-12-05T13:42:13.980Z,51.20
2022-12-05T13:44:44.394Z,47.70
2022-12-05T13:47:28.173Z,50.00
2022-12-05T13:50:01.267Z,46.50
2022-12-05T13:52:32.354Z,49.70
2022-12-05T13:55:05.939Z,40.60
2022-12-05T13:57:55.230Z,49.80
2022-12-05T14:00:36.435Z,51.30
2022-12-05T14:03:16.946Z,44.80
2022-12-05T14:05:49.705Z,47.60
2022-12-05T14:08:52.121Z,47.50
2022-12-05T14:11:19.998Z,45.30
2022-12-05T14:13:47.727Z,48.10
2022-12-05T14:16:49.086Z,48.00
2022-12-05T14:19:48.259Z,51.70
2022-12-05T14:22:32.054Z,47.40
2022-12-05T14:25:09.648Z,53.40
2022-12-05T14:27:49.334Z,49.40
2022-12-05T14:30:27.942Z,48.80
2022-12-05T14:33:00.443Z,49.80
2022-12-05T14:35:31.655Z,48.60
2022-12-05T14:38:04.053Z,50.40
2022-12-05T14:40:34.447Z,46.60
2022-12-05T14:43:05.375Z,52.00
2022-12-05T14:45:36.490Z,46.90
2022-12-05T14:48:25.390Z,50.40
2022-12-05T14:50:54.643Z,52.30
2022-12-05T14:53:42.286Z,53.20
2022-12-05T14:58:50.405Z,44.70
2022-12-05T15:01:22.428Z,54.30
2022-12-05T15:04:19.101Z,49.20
2022-12-05T15:06:54.803Z,54.70
2022-12-05T15:09:41.932Z,52.80
2022-12-05T15:12:16.090Z,54.90
2022-12-05T15:14:52.145Z,53.30
2022-12-05T15:17:30.236Z,51.50
2022-12-05T15:20:05.606Z,47.60
2022-12-05T15:22:37.281Z,52.40
2022-12-05T15:25:23.869Z,52.20
2022-12-05T15:27:57.457Z,50.60
2022-12-05T15:30:27.511Z,50.30
2022-12-05T15:32:59.468Z,47.40
2022-12-05T15:35:31.744Z,54.70
2022-12-05T15:38:05.585Z,50.40
2022-12-05T15:40:36.779Z,51.20
2022-12-05T15:43:27.623Z,52.30
2022-12-05T15:46:29.261Z,53.10
2022-12-05T15:49:00.097Z,40.70
2022-12-05T15:51:59.454Z,52.20
2022-12-05T15:54:56.813Z,56.80
2022-12-05T15:57:33.321Z,57.50
2022-12-05T16:00:26.497Z,67.30
2022-12-05T16:03:34.731Z,55.50
2022-12-05T16:06:33.823Z,51.10
2022-12-05T16:09:27.223Z,49.40
2022-12-05T16:12:23.711Z,53.70
2022-12-05T16:15:00.013Z,50.00
2022-12-05T16:17:38.753Z,53.70
2022-12-05T16:20:31.733Z,47.60
2022-12-05T16:23:29.506Z,49.90
2022-12-05T16:26:24.506Z,51.90
2022-12-05T16:29:28.680Z,49.20
2022-12-05T16:32:25.777Z,49.10
2022-12-05T16:35:36.430Z,50.60
2022-12-05T16:38:29.161Z,50.10
2022-12-05T16:41:22.533Z,51.50
2022-12-05T16:45:01.120Z,48.40
2022-12-05T16:47:58.835Z,48.70
2022-12-05T16:53:41.360Z,44.50
2022-12-05T16:56:32.405Z,49.70
2022-12-05T16:59:31.151Z,48.70
2022-12-05T17:02:21.869Z,52.60
2022-12-05T17:04:52.261Z,44.30
2022-12-05T17:07:44.052Z,53.80
2022-12-05T17:10:35.474Z,53.00
2022-12-05T17:13:26.128Z,51.20
2022-12-05T17:15:56.438Z,53.40
2022-12-05T17:18:51.000Z,59.10
2022-12-05T17:21:46.113Z,54.80
2022-12-05T17:24:36.348Z,49.40
2022-12-05T17:27:25.522Z,49.10
2022-12-05T17:30:18.360Z,50.40
2022-12-05T17:32:50.887Z,48.10
2022-12-05T17:35:21.612Z,48.80
2022-12-05T17:38:11.566Z,53.10
2022-12-05T17:40:41.493Z,48.20
2022-12-05T17:43:34.001Z,54.10
2022-12-05T17:46:03.217Z,46.00
2022-12-05T17:48:35.390Z,50.50
2022-12-05T17:51:26.202Z,49.70
2022-12-05T17:54:22.654Z,49.30
2022-12-05T17:57:13.624Z,55.90
2022-12-05T18:00:04.322Z,49.50
2022-12-05T18:02:54.298Z,40.90
2022-12-05T18:05:45.665Z,41.90
2022-12-05T18:08:39.432Z,53.70
2022-12-05T18:11:32.440Z,52.30
2022-12-05T18:14:24.600Z,59.30
2022-12-05T18:17:15.552Z,52.00
2022-12-05T18:20:04.955Z,53.30
2022-12-05T18:22:57.687Z,48.10
2022-12-05T18:25:58.404Z,54.00
2022-12-05T18:28:30.329Z,54.10
2022-12-05T18:31:08.825Z,61.80
2022-12-05T18:33:38.839Z,50.50
2022-12-05T18:36:08.775Z,58.10
2022-12-05T18:38:38.649Z,53.60
2022-12-05T18:41:11.709Z,59.60
2022-12-05T18:43:41.154Z,57.00
2022-12-05T18:46:10.688Z,49.20
2022-12-05T18:48:41.696Z,51.90
2022-12-05T18:51:14.509Z,59.00
2022-12-05T18:53:52.358Z,55.50
2022-12-05T18:56:24.151Z,57.80
2022-12-05T18:58:57.777Z,55.50
2022-12-05T19:01:27.403Z,57.60
2022-12-05T19:03:57.312Z,50.00
2022-12-05T19:06:26.790Z,54.60
2022-12-05T19:08:59.450Z,56.60
2022-12-05T19:11:31.894Z,58.50
2022-12-05T19:14:04.810Z,53.60
2022-12-05T19:16:38.532Z,55.60
2022-12-05T19:19:08.672Z,60.30
2022-12-05T19:21:41.310Z,48.60
2022-12-05T19:27:00.634Z,56.70
2022-12-05T19:29:28.694Z,56.90
2022-12-05T19:31:58.463Z,51.10
2022-12-05T19:34:26.749Z,52.80
2022-12-05T19:36:54.719Z,47.80
2022-12-05T19:39:26.780Z,49.80
2022-12-05T19:41:57.294Z,53.70
2022-12-05T19:44:25.673Z,50.80
2022-12-05T19:46:57.145Z,55.60
2022-12-05T19:49:33.144Z,50.10
2022-12-05T19:52:03.398Z,53.20
2022-12-05T19:54:34.061Z,61.00
2022-12-05T19:57:06.166Z,48.60
2022-12-05T19:59:40.440Z,45.40
2022-12-05T20:02:09.899Z,43.60
2022-12-05T20:04:58.205Z,49.20
2022-12-05T20:07:49.612Z,48.30
2022-12-05T20:10:20.698Z,42.70
2022-12-05T20:13:05.565Z,49.40
2022-12-05T20:15:42.082Z,44.80
2022-12-05T20:18:33.356Z,50.70
2022-12-05T20:21:04.002Z,50.90
2022-12-05T20:23:35.987Z,47.10
2022-12-05T20:26:14.157Z,54.40
2022-12-05T20:28:43.512Z,51.70
2022-12-05T20:31:35.611Z,53.80
2022-12-05T20:34:07.147Z,45.60
2022-12-05T20:36:38.116Z,48.30
2022-12-05T20:39:08.042Z,52.20
2022-12-05T20:41:36.030Z,51.40
2022-12-05T20:44:06.620Z,54.70
2022-12-05T20:46:54.940Z,56.30
2022-12-05T20:49:23.790Z,50.30
2022-12-05T20:51:52.939Z,52.90
2022-12-05T20:54:33.476Z,55.20
2022-12-05T20:57:23.386Z,53.50
2022-12-05T20:59:57.510Z,55.60
2022-12-05T21:02:27.478Z,46.20
2022-12-05T21:04:57.138Z,52.60
2022-12-05T21:07:25.082Z,51.50
2022-12-05T21:09:53.774Z,52.40
2022-12-05T21:12:23.626Z,50.40
2022-12-05T21:14:53.338Z,40.60
2022-12-05T21:17:22.929Z,41.40
2022-12-05T21:19:51.765Z,37.50
2022-12-05T21:22:20.359Z,37.60
2022-12-05T21:24:51.099Z,32.20
2022-12-05T21:27:19.994Z,35.40
2022-12-05T21:29:50.815Z,33.30
2022-12-05T21:32:18.480Z,36.70
2022-12-05T21:34:47.270Z,38.10
2022-12-05T21:37:14.863Z,37.80
2022-12-05T21:39:45.300Z,43.20
2022-12-05T21:42:14.070Z,43.40
2022-12-05T21:44:42.088Z,43.50
2022-12-05T21:47:10.335Z,39.40
2022-12-05T21:49:40.942Z,48.60
2022-12-05T21:52:10.798Z,42.40
2022-12-05T21:54:47.484Z,44.40
2022-12-05T21:57:16.617Z,41.30
2022-12-05T21:59:45.740Z,44.40
2022-12-05T22:02:28.172Z,44.30
2022-12-05T22:04:58.933Z,44.80
2022-12-05T22:07:26.614Z,38.90
2022-12-05T22:12:47.234Z,34.70
2022-12-05T22:15:16.216Z,35.10
2022-12-05T22:17:45.832Z,35.60
2022-12-05T22:20:23.395Z,40.40
2022-12-05T22:22:52.087Z,40.80
2022-12-05T22:25:21.282Z,36.90
2022-12-05T22:27:50.660Z,38.30
2022-12-05T22:30:20.510Z,34.80
2022-12-05T22:33:09.467Z,40.30
2022-12-05T22:35:38.094Z,40.00
2022-12-05T22:38:23.173Z,35.90
2022-12-05T22:40:58.412Z,36.70
2022-12-05T22:43:27.939Z,33.20
2022-12-05T22:45:56.721Z,29.70
2022-12-05T22:48:28.153Z,35.30
2022-12-05T22:50:57.484Z,30.00
2022-12-05T22:53:25.737Z,34.40
2022-12-05T22:55:54.524Z,34.00
2022-12-05T22:58:22.735Z,32.50
2022-12-05T23:00:51.948Z,27.20
2022-12-05T23:03:21.031Z,30.60
2022-12-05T23:05:49.817Z,28.70
2022-12-05T23:08:18.315Z,29.40
2022-12-05T23:10:46.928Z,28.80
2022-12-05T23:13:17.449Z,31.20
2022-12-05T23:15:46.266Z,30.10
2022-12-05T23:18:16.370Z,29.30
2022-12-05T23:20:45.568Z,29.00
2022-12-05T23:23:16.906Z,32.30
2022-12-05T23:25:45.148Z,27.50
2022-12-05T23:28:13.382Z,28.90
2022-12-05T23:30:43.402Z,25.80
2022-12-05T23:33:11.095Z,27.00
2022-12-05T23:35:38.840Z,27.00
2022-12-05T23:38:07.569Z,24.30
2022-12-05T23:40:38.874Z,27.80
2022-12-05T23:43:08.044Z,34.60
2022-12-05T23:45:36.269Z,32.60
2022-12-05T23:48:05.451Z,26.30
2022-12-05T23:50:33.938Z,28.60
2022-12-05T23:53:02.239Z,27.90
2022-12-05T23:55:35.211Z,27.40
2022-12-05T23:58:03.803Z,29.20
